Time;durP1;ratioP1;P1;durP2;ratioP2;P2;SDS_P1;SDS_P2;PMS_P1;PMS_P2;Temp;Humidity;BMP_temperature;BMP_pressure;BME280_temperature;BME280_humidity;BME280_pressure;Samples;Min_cycle;Max_cycle;Signal;HPM_P1;HPM_P2
2022/04/04 00:00:02;;;;;;;2.00;1.50;;;12.90;55.90;;;;;;5032325;28;20057;-68
2022/04/04 00:02:28;;;;;;;2.40;1.65;;;12.50;57.00;;;;;;5032556;28;20081;-68
2022/04/04 00:04:55;;;;;;;2.05;1.70;;;12.40;56.80;;;;;;5032244;28;20057;-68
2022/04/04 00:07:22;;;;;;;2.15;1.60;;;;;;;;;;5032517;28;20057;-68
2022/04/04 00:09:50;;;;;;;1.92;1.50;;;12.40;57.20;;;;;;5041321;28;20042;-68
2022/04/04 00:12:17;;;;;;;2.55;1.73;;;12.40;57.30;;;;;;5045941;28;20040;-68
2022/04/04 00:14:44;;;;;;;2.33;1.50;;;;;;;;;;5052070;28;20115;-70
2022/04/04 00:17:11;;;;;;;2.22;1.60;;;12.50;57.40;;;;;;5053410;28;20051;-68
2022/04/04 00:19:38;;;;;;;2.25;1.60;;;12.90;57.60;;;;;;5053177;28;20049;-68
2022/04/04 00:22:06;;;;;;;2.05;1.40;;;;;;;;;;5046828;28;20053;-68
2022/04/04 00:24:32;;;;;;;2.05;1.60;;;12.80;54.40;;;;;;5032207;28;20506;-68
2022/04/04 00:27:01;;;;;;;1.85;1.50;;;12.50;57.30;;;;;;5033165;28;20458;-68
2022/04/04 00:29:27;;;;;;;2.20;1.63;;;12.60;57.20;;;;;;5031468;28;20399;-68
2022/04/04 00:31:55;;;;;;;2.53;1.65;;;;;;;;;;5033146;28;20387;-68
2022/04/04 00:34:21;;;;;;;2.05;1.40;;;12.60;57.50;;;;;;5031745;28;20049;-68
2022/04/04 00:36:49;;;;;;;2.08;1.45;;;;;;;;;;5047278;28;20486;-70
2022/04/04 00:39:19;;;;;;;2.28;1.67;;;;;;;;;;5052532;28;20067;-68
2022/04/04 00:41:46;;;;;;;2.03;1.50;;;12.60;57.20;;;;;;5051394;28;20063;-68
2022/04/04 00:44:14;;;;;;;2.30;1.55;;;12.50;48.40;;;;;;5052585;28;20041;-70
2022/04/04 00:46:41;;;;;;;2.15;1.45;;;;;;;;;;5052631;28;20045;-70
2022/04/04 00:49:08;;;;;;;1.67;1.35;;;13.00;57.60;;;;;;5045798;28;20049;-68
2022/04/04 00:51:35;;;;;;;1.85;1.50;;;12.50;57.00;;;;;;5031541;28;20101;-68
2022/04/04 00:54:02;;;;;;;2.42;1.50;;;12.50;57.20;;;;;;5031245;28;20053;-68
2022/04/04 00:56:32;;;;;;;1.90;1.50;;;12.50;57.10;;;;;;5031508;28;20085;-68
2022/04/04 00:58:59;;;;;;;2.15;1.48;;;;;;;;;;5031571;28;20504;-70
2022/04/04 01:01:28;;;;;;;2.05;1.52;;;12.60;57.10;;;;;;5031174;28;20059;-68
2022/04/04 01:03:55;;;;;;;2.10;1.50;;;12.70;57.20;;;;;;5046739;28;20057;-68
2022/04/04 01:06:21;;;;;;;1.95;1.38;;;12.60;55.70;;;;;;5051290;28;20052;-68
2022/04/04 01:08:48;;;;;;;1.48;1.38;;;12.70;57.20;;;;;;5050994;28;20067;-68
2022/04/04 01:11:15;;;;;;;1.85;1.30;;;12.60;57.30;;;;;;5050818;28;20056;-68
2022/04/04 01:13:45;;;;;;;2.00;1.42;;;12.60;51.80;;;;;;5052330;28;20051;-69
2022/04/04 01:16:13;;;;;;;2.03;1.40;;;12.60;57.10;;;;;;5045642;28;20049;-68
2022/04/04 01:18:42;;;;;;;3.15;1.27;;;12.50;57.00;;;;;;5032318;28;20049;-68
2022/04/04 01:21:09;;;;;;;1.67;1.20;;;12.50;57.00;;;;;;5030927;28;20053;-68
2022/04/04 01:23:39;;;;;;;1.50;1.20;;;12.60;48.50;;;;;;5030736;28;20060;-69
2022/04/04 01:26:07;;;;;;;1.48;1.30;;;12.80;52.20;;;;;;5031079;28;20049;-69
2022/04/04 01:28:34;;;;;;;2.08;1.50;;;12.80;52.50;;;;;;5030992;28;20071;-68
2022/04/04 01:31:00;;;;;;;1.75;1.40;;;12.60;57.00;;;;;;5045834;28;20056;-68
2022/04/04 01:33:27;;;;;;;2.17;1.45;;;12.80;57.10;;;;;;5051920;28;20413;-68
2022/04/04 01:35:54;;;;;;;2.22;1.50;;;;;;;;;;5048913;28;20495;-68
2022/04/04 01:38:21;;;;;;;1.73;1.42;;;12.60;57.20;;;;;;5050812;28;20055;-68
2022/04/04 01:40:48;;;;;;;1.60;1.17;;;;;;;;;;5051667;28;20055;-69
2022/04/04 01:43:16;;;;;;;1.40;1.20;;;12.80;57.30;;;;;;5046169;28;20534;-68
2022/04/04 01:48:27;;;;;;;1.90;1.38;;;12.60;57.20;;;;;;5030585;28;20470;-68
2022/04/04 01:50:54;;;;;;;2.20;1.40;;;;;;;;;;5031454;28;20045;-68
2022/04/04 01:53:26;;;;;;;1.65;1.30;;;12.70;56.80;;;;;;5030634;28;20512;-68
2022/04/04 01:55:53;;;;;;;1.60;1.30;;;13.00;57.10;;;;;;5030131;28;20107;-68
2022/04/04 01:58:23;;;;;;;1.60;1.27;;;12.70;48.40;;;;;;5047657;28;20063;-70
2022/04/04 02:00:50;;;;;;;2.03;1.30;;;;;;;;;;5050346;28;20053;-68
2022/04/04 02:03:17;;;;;;;1.40;1.10;;;;;;;;;;5051244;28;20052;-68
2022/04/04 02:05:44;;;;;;;1.70;1.27;;;12.70;57.20;;;;;;5050567;28;20053;-68
2022/04/04 02:08:11;;;;;;;1.95;1.40;;;;;;;;;;5050480;28;20061;-68
2022/04/04 02:10:38;;;;;;;2.17;1.38;;;12.80;57.10;;;;;;5043835;28;20059;-68
2022/04/04 02:13:05;;;;;;;1.77;1.30;;;;;;;;;;5030172;28;20049;-70
2022/04/04 02:15:33;;;;;;;3.25;1.85;;;13.00;57.00;;;;;;5031895;28;20053;-68
2022/04/04 02:18:00;;;;;;;1.73;1.20;;;12.70;50.10;;;;;;5030396;28;20073;-68
2022/04/04 02:20:26;;;;;;;1.95;1.40;;;12.80;56.80;;;;;;5030379;28;20080;-68
2022/04/04 02:22:53;;;;;;;2.17;1.30;;;;;;;;;;5030361;28;20487;-68
2022/04/04 02:25:20;;;;;;;1.75;1.20;;;12.80;56.70;;;;;;5031840;28;20053;-68
2022/04/04 02:27:48;;;;;;;1.58;1.30;;;;;;;;;;5031581;28;20050;-70
2022/04/04 02:30:15;;;;;;;1.60;1.40;;;13.00;56.90;;;;;;5031081;28;20054;-68
2022/04/04 02:32:43;;;;;;;2.03;1.30;;;12.90;51.60;;;;;;5031374;28;20055;-68
2022/04/04 02:35:10;;;;;;;1.40;1.25;;;13.00;50.50;;;;;;5031548;28;20103;-69
2022/04/04 02:37:36;;;;;;;1.27;1.17;;;13.00;56.80;;;;;;5035671;28;20504;-68
2022/04/04 02:40:04;;;;;;;1.73;1.30;;;12.80;56.80;;;;;;5049579;28;20044;-68
2022/04/04 02:42:30;;;;;;;1.73;1.30;;;12.80;57.00;;;;;;5050150;28;20061;-68
2022/04/04 02:44:57;;;;;;;1.30;1.20;;;12.60;56.50;;;;;;5049858;28;20049;-68
2022/04/04 02:47:24;;;;;;;1.55;1.38;;;12.70;53.60;;;;;;5050148;28;20049;-68
2022/04/04 02:49:52;;;;;;;2.03;1.55;;;12.80;56.60;;;;;;5051275;28;20401;-68
2022/04/04 02:52:19;;;;;;;1.65;1.30;;;;;;;;;;5035951;28;20046;-68
2022/04/04 02:54:46;;;;;;;2.47;1.50;;;;;;;;;;5031177;28;20049;-68
2022/04/04 02:57:14;;;;;;;1.77;1.23;;;12.90;56.90;;;;;;5030046;28;20057;-68
2022/04/04 02:59:40;;;;;;;2.38;1.23;;;13.10;56.60;;;;;;5029743;28;20045;-68
2022/04/04 03:02:07;;;;;;;1.73;1.20;;;13.00;54.60;;;;;;5031225;28;20056;-68
2022/04/04 03:04:35;;;;;;;1.65;1.33;;;;;;;;;;5035214;28;20545;-68
2022/04/04 03:07:04;;;;;;;1.40;1.10;;;13.00;56.70;;;;;;5051564;28;20102;-68
2022/04/04 03:09:31;;;;;;;1.60;1.20;;;;;;;;;;5054159;28;20085;-68
2022/04/04 03:11:58;;;;;;;1.45;1.20;;;;;;;;;;5053329;28;20057;-69
2022/04/04 03:14:25;;;;;;;1.83;1.20;;;;;;;;;;5053026;28;20461;-68
2022/04/04 03:16:51;;;;;;;1.23;1.13;;;13.20;57.00;;;;;;5053267;28;20053;-68
2022/04/04 03:19:18;;;;;;;1.50;1.20;;;12.90;56.90;;;;;;5052327;28;20060;-68
2022/04/04 03:21:45;;;;;;;2.67;1.13;;;12.90;53.70;;;;;;5054106;28;20051;-68
2022/04/04 03:24:13;;;;;;;1.48;1.20;;;13.10;57.00;;;;;;5054192;28;20056;-68
2022/04/04 03:26:40;;;;;;;1.30;1.10;;;12.80;56.50;;;;;;5053183;28;20052;-68
2022/04/04 03:29:06;;;;;;;2.45;1.33;;;13.30;56.70;;;;;;5053959;28;20055;-68
2022/04/04 03:31:33;;;;;;;1.60;1.30;;;;;;;;;;5049884;28;20047;-69
2022/04/04 03:34:01;;;;;;;1.75;1.30;;;12.80;56.40;;;;;;5034119;28;20054;-68
2022/04/04 03:36:27;;;;;;;1.83;1.35;;;13.00;56.70;;;;;;5032981;28;20064;-68
2022/04/04 03:38:54;;;;;;;1.83;1.30;;;13.00;56.80;;;;;;5034102;28;20534;-68
2022/04/04 03:41:22;;;;;;;1.58;1.27;;;12.90;48.10;;;;;;5033765;28;20132;-68
2022/04/04 03:43:49;;;;;;;1.80;1.30;;;13.00;56.60;;;;;;5034091;28;20051;-68
2022/04/04 03:46:15;;;;;;;1.70;1.30;;;12.90;54.30;;;;;;5045972;28;20414;-68
2022/04/04 03:48:42;;;;;;;1.75;1.30;;;13.10;56.90;;;;;;5053710;28;20049;-68
2022/04/04 03:51:09;;;;;;;1.35;1.20;;;13.20;56.60;;;;;;5053733;28;20045;-68
2022/04/04 03:53:36;;;;;;;1.83;1.25;;;12.90;56.30;;;;;;5052684;28;20063;-69
2022/04/04 03:56:03;;;;;;;2.28;1.40;;;13.10;56.50;;;;;;5053697;28;20055;-68
2022/04/04 03:58:31;;;;;;;1.35;1.10;;;12.90;48.60;;;;;;5052536;28;20056;-69
2022/04/04 04:00:58;;;;;;;2.17;1.20;;;;;;;;;;5047835;28;20060;-69
2022/04/04 04:03:31;;;;;;;2.22;1.42;;;;;;;;;;5032680;28;20089;-70
2022/04/04 04:06:11;;;;;;;1.63;1.30;;;;;;;;;;5033397;28;20060;-70
2022/04/04 04:08:41;;;;;;;2.05;1.40;;;13.00;56.50;;;;;;5033545;28;20057;-68
2022/04/04 04:11:08;;;;;;;3.03;1.20;;;;;;;;;;5033123;28;20552;-68
2022/04/04 04:13:37;;;;;;;2.20;1.60;;;13.00;56.80;;;;;;5032203;28;20518;-68
2022/04/04 04:16:05;;;;;;;2.17;1.40;;;13.10;51.60;;;;;;5032937;28;20518;-68
2022/04/04 04:18:31;;;;;;;1.80;1.40;;;13.40;53.60;;;;;;5050616;28;20126;-68
2022/04/04 04:20:58;;;;;;;1.73;1.33;;;;;;;;;;5051978;28;20060;-69
2022/04/04 04:23:25;;;;;;;1.75;1.40;;;;;;;;;;5053185;28;20041;-68
2022/04/04 04:25:52;;;;;;;1.55;1.30;;;;;;;;;;5046858;28;20049;-69
2022/04/04 04:28:19;;;;;;;1.52;1.20;;;13.10;56.50;;;;;;5032006;28;20069;-68
2022/04/04 04:30:47;;;;;;;2.25;1.33;;;13.00;48.10;;;;;;5032757;28;20049;-68
2022/04/04 04:33:14;;;;;;;1.27;1.17;;;;;;;;;;5033930;28;20083;-68
2022/04/04 04:35:41;;;;;;;1.40;1.10;;;12.40;56.40;;;;;;5032156;28;20478;-68
2022/04/04 04:38:08;;;;;;;2.17;1.02;;;13.10;56.50;;;;;;5031909;28;20057;-68
2022/04/04 04:40:35;;;;;;;1.65;1.23;;;13.00;55.50;;;;;;5032794;28;20053;-68
2022/04/04 04:43:02;;;;;;;1.90;1.30;;;13.40;56.90;;;;;;5031729;28;20053;-68
2022/04/04 04:45:29;;;;;;;1.73;1.33;;;13.20;49.20;;;;;;5032655;28;20132;-69
2022/04/04 04:47:57;;;;;;;1.70;1.40;;;12.90;50.50;;;;;;5032686;28;20092;-68
2022/04/04 04:50:24;;;;;;;1.33;1.08;;;13.20;56.80;;;;;;5033650;28;20095;-68
2022/04/04 04:52:50;;;;;;;1.23;1.10;;;13.00;56.40;;;;;;5031668;28;20145;-68
2022/04/04 04:55:18;;;;;;;1.75;1.33;;;;;;;;;;5032663;28;20045;-68
2022/04/04 04:57:45;;;;;;;1.60;1.20;;;13.10;52.00;;;;;;5032533;28;20391;-69
2022/04/04 05:00:14;;;;;;;1.40;1.10;;;12.90;56.60;;;;;;5032362;28;20053;-69
2022/04/04 05:02:40;;;;;;;1.83;1.30;;;13.10;51.90;;;;;;5032402;28;20552;-68
2022/04/04 05:05:09;;;;;;;1.63;1.20;;;13.10;48.20;;;;;;5049134;28;20064;-69
2022/04/04 05:07:36;;;;;;;2.42;1.30;;;;;;;;;;5050879;28;20048;-68
2022/04/04 05:10:03;;;;;;;1.40;1.10;;;;;;;;;;5050793;28;20075;-68
2022/04/04 05:12:30;;;;;;;1.42;1.20;;;12.90;56.40;;;;;;5051153;28;20132;-68
2022/04/04 05:14:57;;;;;;;1.20;1.10;;;;;;;;;;5050765;28;20059;-68
2022/04/04 05:17:24;;;;;;;1.50;1.30;;;13.10;56.80;;;;;;5044049;28;20092;-68
2022/04/04 05:19:51;;;;;;;1.30;1.10;;;13.00;56.80;;;;;;5014289;28;20418;-68
2022/04/04 05:22:19;;;;;;;1.75;1.30;;;13.00;51.50;;;;;;5031143;28;20106;-69
2022/04/04 05:24:46;;;;;;;1.60;1.30;;;;;;;;;;5032265;28;20123;-69
2022/04/04 05:27:13;;;;;;;1.48;1.20;;;;;;;;;;5030659;28;20059;-68
2022/04/04 05:29:40;;;;;;;1.65;1.20;;;;;;;;;;5029679;28;20144;-68
2022/04/04 05:32:07;;;;;;;1.70;1.23;;;12.90;56.50;;;;;;5032133;28;20075;-68
2022/04/04 05:34:34;;;;;;;1.92;1.30;;;;;;;;;;5049260;28;20056;-68
2022/04/04 05:37:03;;;;;;;1.48;1.20;;;13.00;56.50;;;;;;5050652;28;20055;-68
2022/04/04 05:39:31;;;;;;;1.70;1.30;;;13.00;52.60;;;;;;5033062;28;20132;-68
2022/04/04 05:41:58;;;;;;;1.20;1.10;;;13.50;51.70;;;;;;5030854;28;20160;-69
2022/04/04 05:44:25;;;;;;;1.50;1.25;;;13.10;56.80;;;;;;5031062;28;20384;-68
2022/04/04 05:46:52;;;;;;;2.67;1.30;;;;;;;;;;5030773;28;20080;-68
2022/04/04 05:49:19;;;;;;;1.80;1.40;;;13.00;56.70;;;;;;5031506;28;20059;-68
2022/04/04 05:51:46;;;;;;;1.63;1.23;;;13.00;56.40;;;;;;5031451;28;20499;-68
2022/04/04 05:54:14;;;;;;;1.35;1.17;;;;;;;;;;5031666;28;20046;-69
2022/04/04 05:56:44;;;;;;;1.27;1.00;;;13.10;48.10;;;;;;5031622;28;20053;-69
2022/04/04 05:59:11;;;;;;;2.10;1.20;;;13.50;57.00;;;;;;5030660;28;20053;-68
2022/04/04 06:01:38;;;;;;;1.92;1.30;;;;;;;;;;5031212;28;20664;-68
2022/04/04 06:04:05;;;;;;;1.80;1.20;;;13.20;56.80;;;;;;5031793;28;20049;-68
2022/04/04 06:06:32;;;;;;;1.65;1.30;;;13.20;56.50;;;;;;5032999;28;20052;-68
2022/04/04 06:08:59;;;;;;;1.48;1.20;;;;;;;;;;5030173;28;20421;-69
2022/04/04 06:11:26;;;;;;;1.20;1.10;;;12.90;53.00;;;;;;5029864;28;20496;-68
2022/04/04 06:13:54;;;;;;;1.58;1.27;;;13.10;48.10;;;;;;5030625;28;20049;-70
2022/04/04 06:16:21;;;;;;;1.65;1.20;;;;;;;;;;5036408;28;20501;-69
2022/04/04 06:18:50;;;;;;;1.63;1.20;;;13.20;56.50;;;;;;5051684;28;20153;-66
2022/04/04 06:21:17;;;;;;;2.00;1.35;;;;;;;;;;5042250;28;20088;-66
2022/04/04 06:23:44;;;;;;;1.73;1.35;;;13.10;56.40;;;;;;5041970;28;20057;-66
2022/04/04 06:26:12;;;;;;;2.15;1.50;;;13.00;56.70;;;;;;5041682;28;20055;-66
2022/04/04 06:28:39;;;;;;;1.60;1.20;;;;;;;;;;5040600;28;20486;-68
2022/04/04 06:31:08;;;;;;;1.67;1.25;;;13.20;48.10;;;;;;5037984;28;20055;-67
2022/04/04 06:33:35;;;;;;;1.75;1.23;;;13.30;56.70;;;;;;5038988;28;20047;-66
2022/04/04 06:36:02;;;;;;;1.58;1.20;;;;;;;;;;5041561;28;20057;-69
2022/04/04 06:38:29;;;;;;;1.55;1.10;;;13.20;56.70;;;;;;5041596;28;20056;-66
2022/04/04 06:40:56;;;;;;;1.70;1.10;;;;;;;;;;5044019;28;20052;-68
2022/04/04 06:43:23;;;;;;;1.42;1.00;;;13.30;56.20;;;;;;5047607;28;20056;-66
2022/04/04 06:45:50;;;;;;;1.65;1.20;;;;;;;;;;5053888;28;20053;-70
2022/04/04 06:48:18;;;;;;;1.67;1.10;;;13.30;56.00;;;;;;5052776;28;20049;-66
2022/04/04 06:50:45;;;;;;;1.65;1.02;;;13.10;56.10;;;;;;5046687;28;20047;-69
2022/04/04 06:53:12;;;;;;;1.20;1.05;;;12.90;55.70;;;;;;5037172;28;20413;-69
2022/04/04 06:55:39;;;;;;;1.17;1.08;;;13.30;54.50;;;;;;5049789;28;20049;-69
2022/04/04 06:58:06;;;;;;;1.65;1.10;;;13.20;56.00;;;;;;5048737;28;20049;-66
2022/04/04 07:00:35;;;;;;;4.45;1.30;;;13.60;56.00;;;;;;5036121;28;20045;-67
2022/04/04 07:03:02;;;;;;;2.28;1.23;;;13.50;56.00;;;;;;5043209;28;20045;-68
2022/04/04 07:05:30;;;;;;;4.70;1.50;;;13.30;55.90;;;;;;5043250;28;20084;-69
2022/04/04 07:07:57;;;;;;;3.80;1.90;;;13.60;55.60;;;;;;5044736;28;20486;-68
2022/04/04 07:10:23;;;;;;;2.78;1.50;;;13.20;55.70;;;;;;5038446;28;20052;-68
2022/04/04 07:12:50;;;;;;;2.88;1.50;;;;;;;;;;5033476;28;20053;-70
2022/04/04 07:15:17;;;;;;;2.03;1.50;;;13.80;56.00;;;;;;5039882;28;20061;-68
2022/04/04 07:17:44;;;;;;;2.50;1.38;;;13.90;56.20;;;;;;5053097;28;20056;-68
2022/04/04 07:20:12;;;;;;;2.60;1.48;;;13.80;54.60;;;;;;5053600;28;20048;-68
2022/04/04 07:22:41;;;;;;;2.08;1.25;;;13.70;49.80;;;;;;5053006;28;20049;-68
2022/04/04 07:25:09;;;;;;;3.15;1.52;;;13.80;55.70;;;;;;5053368;28;20061;-68
2022/04/04 07:27:36;;;;;;;3.67;1.35;;;14.00;56.10;;;;;;5053260;28;20061;-68
2022/04/04 07:30:03;;;;;;;1.58;1.17;;;;;;;;;;5036902;28;20061;-70
2022/04/04 07:32:30;;;;;;;3.40;1.15;;;13.70;55.80;;;;;;5033232;28;20088;-68
2022/04/04 07:34:57;;;;;;;2.72;1.48;;;;;;;;;;5032930;28;20053;-68
2022/04/04 07:37:24;;;;;;;4.10;1.50;;;14.00;55.60;;;;;;5034441;28;20053;-69
2022/04/04 07:39:52;;;;;;;2.75;1.52;;;13.60;55.30;;;;;;5037185;28;20053;-68
2022/04/04 07:42:19;;;;;;;1.85;1.15;;;14.20;55.90;;;;;;5044044;28;20045;-68
2022/04/04 07:44:46;;;;;;;2.83;1.50;;;;;;;;;;5043864;28;20049;-70
2022/04/04 07:47:12;;;;;;;1.67;1.20;;;14.20;55.90;;;;;;5045286;28;20049;-68
2022/04/04 07:49:39;;;;;;;3.03;1.40;;;;;;;;;;5042402;28;20057;-70
2022/04/04 07:52:06;;;;;;;2.85;1.50;;;14.90;55.90;;;;;;5040233;28;20479;-67
2022/04/04 07:54:34;;;;;;;2.08;1.30;;;;;;;;;;5037701;28;20152;-70
2022/04/04 07:57:02;;;;;;;2.35;1.20;;;14.20;55.40;;;;;;5034293;28;20052;-68
2022/04/04 07:59:29;;;;;;;1.75;1.38;;;14.10;55.70;;;;;;5032586;28;20053;-67
2022/04/04 08:01:55;;;;;;;1.90;1.50;;;14.30;55.80;;;;;;5033694;28;20046;-67
2022/04/04 08:04:23;;;;;;;2.90;1.40;;;;;;;;;;5016432;28;20053;-68
2022/04/04 08:06:50;;;;;;;1.40;1.17;;;14.30;55.90;;;;;;5047241;28;20053;-67
2022/04/04 08:09:17;;;;;;;3.33;1.67;;;14.30;55.50;;;;;;5033713;28;20115;-67
2022/04/04 08:11:44;;;;;;;1.23;1.10;;;;;;;;;;5037459;28;20496;-67
2022/04/04 08:14:12;;;;;;;3.00;1.40;;;14.20;55.70;;;;;;5052408;28;20063;-67
2022/04/04 08:16:38;;;;;;;2.80;1.30;;;14.20;55.60;;;;;;5053348;28;20044;-67
2022/04/04 08:19:06;;;;;;;1.48;1.08;;;14.10;55.70;;;;;;5053409;28;20051;-69
2022/04/04 08:21:32;;;;;;;2.28;1.30;;;13.50;53.60;;;;;;5052082;28;20053;-67
2022/04/04 08:23:59;;;;;;;3.10;1.40;;;;;;;;;;5045709;28;20063;-68
2022/04/04 08:26:27;;;;;;;1.95;1.20;;;;;;;;;;5033515;28;20060;-71
2022/04/04 08:28:53;;;;;;;2.47;1.40;;;14.30;55.50;;;;;;5032202;28;20063;-67
2022/04/04 08:31:21;;;;;;;2.25;1.20;;;14.20;47.40;;;;;;5033076;28;20042;-70
2022/04/04 08:33:48;;;;;;;2.75;1.48;;;;;;;;;;5033203;28;20049;-67
2022/04/04 08:36:15;;;;;;;1.80;1.35;;;14.30;55.40;;;;;;5021098;28;20061;-68
2022/04/04 08:38:42;;;;;;;3.55;1.30;;;14.30;55.50;;;;;;5051807;28;20498;-68
2022/04/04 08:41:10;;;;;;;4.18;1.98;;;14.40;51.70;;;;;;5046478;28;20072;-69
2022/04/04 08:43:38;;;;;;;2.60;1.67;;;14.00;50.50;;;;;;5033024;28;20061;-69
2022/04/04 08:46:06;;;;;;;2.03;1.52;;;;;;;;;;5031280;28;20049;-70
2022/04/04 08:48:34;;;;;;;1.88;1.40;;;14.40;52.50;;;;;;5030667;28;20057;-69
2022/04/04 08:51:01;;;;;;;3.03;1.52;;;14.30;55.20;;;;;;5037313;28;20075;-69
2022/04/04 08:53:28;;;;;;;3.50;1.63;;;14.30;55.40;;;;;;5050239;28;20052;-69
2022/04/04 08:55:57;;;;;;;1.98;1.50;;;14.20;52.20;;;;;;5050163;28;20466;-69
2022/04/04 08:58:24;;;;;;;2.95;1.70;;;14.10;50.30;;;;;;5050118;28;20077;-69
2022/04/04 09:00:50;;;;;;;1.70;1.40;;;13.60;55.30;;;;;;5046947;28;20045;-68
2022/04/04 09:03:20;;;;;;;2.72;1.60;;;14.40;47.50;;;;;;5031531;28;20057;-70
2022/04/04 09:05:52;;;;;;;2.65;1.70;;;14.40;47.50;;;;;;5032675;28;20063;-71
2022/04/04 09:08:20;;;;;;;1.92;1.52;;;14.40;55.70;;;;;;5031258;28;20359;-68
2022/04/04 09:10:47;;;;;;;2.38;1.40;;;14.30;55.60;;;;;;5030943;28;20053;-68
2022/04/04 09:13:15;;;;;;;3.20;1.70;;;14.40;47.50;;;;;;5032426;28;20045;-70
2022/04/04 09:15:56;;;;;;;2.45;1.40;;;14.50;55.70;;;;;;5044225;28;20148;-68
2022/04/04 09:18:43;;;;;;;3.67;1.40;;;14.50;55.50;;;;;;5051131;28;20063;-68
2022/04/04 09:21:12;;;;;;;1.88;1.38;;;14.40;55.50;;;;;;5050883;28;20485;-69
2022/04/04 09:23:54;;;;;;;2.65;1.40;;;14.40;55.70;;;;;;5052295;28;20059;-68
2022/04/04 09:26:27;;;;;;;1.83;1.30;;;14.60;55.60;;;;;;5052443;28;20129;-68
2022/04/04 09:28:54;;;;;;;2.15;1.30;;;;;;;;;;5051135;28;20056;-71
2022/04/04 09:31:20;;;;;;;2.80;1.60;;;14.80;55.60;;;;;;5040963;28;20057;-68
2022/04/04 09:33:48;;;;;;;3.28;1.40;;;13.80;54.60;;;;;;5031081;28;20045;-68
2022/04/04 09:36:16;;;;;;;2.30;1.60;;;14.40;55.60;;;;;;5032338;28;20387;-69
2022/04/04 09:38:43;;;;;;;1.50;1.20;;;13.80;55.00;;;;;;5032933;28;20053;-68
2022/04/04 09:41:20;;;;;;;1.48;1.25;;;14.60;48.10;;;;;;5040348;28;20053;-70
2022/04/04 09:43:50;;;;;;;2.35;1.40;;;14.50;53.80;;;;;;5040351;28;20084;-68
2022/04/04 09:46:17;;;;;;;2.05;1.33;;;14.50;55.20;;;;;;5041496;28;20053;-68
2022/04/04 09:49:02;;;;;;;1.50;1.27;;;14.60;55.50;;;;;;5041723;28;20513;-69
2022/04/04 09:51:37;;;;;;;1.63;1.30;;;14.60;54.00;;;;;;5040282;28;20049;-69
2022/04/04 09:54:05;;;;;;;2.58;1.30;;;14.60;55.50;;;;;;5039840;28;20060;-68
2022/04/04 09:56:31;;;;;;;1.30;1.10;;;14.60;55.70;;;;;;5039924;28;20049;-69
2022/04/04 09:58:58;;;;;;;1.70;1.23;;;14.70;55.80;;;;;;5041113;28;20057;-68
2022/04/04 10:01:25;;;;;;;2.13;1.00;;;;;;;;;;5038690;28;20099;-69
2022/04/04 10:03:52;;;;;;;2.08;1.30;;;14.60;55.70;;;;;;5042973;28;20044;-68
2022/04/04 10:06:19;;;;;;;1.25;1.00;;;;;;;;;;5041246;28;20387;-70
2022/04/04 10:08:51;;;;;;;1.55;0.90;;;14.60;55.70;;;;;;5039884;28;20470;-68
2022/04/04 10:11:18;;;;;;;1.20;1.00;;;14.70;55.50;;;;;;5039007;28;20128;-68
2022/04/04 10:13:45;;;;;;;2.38;1.20;;;14.60;55.40;;;;;;5041832;28;20045;-68
2022/04/04 10:16:12;;;;;;;1.27;1.17;;;14.60;55.60;;;;;;5044087;28;20413;-68
2022/04/04 10:18:39;;;;;;;1.77;1.08;;;;;;;;;;5046561;28;20059;-69
2022/04/04 10:21:05;;;;;;;1.73;1.13;;;14.90;51.60;;;;;;5044699;28;20052;-69
2022/04/04 10:23:32;;;;;;;1.77;1.05;;;14.60;55.40;;;;;;5035663;28;20563;-68
2022/04/04 10:26:00;;;;;;;3.35;1.10;;;14.60;55.40;;;;;;5036011;28;20060;-68
2022/04/04 10:28:27;;;;;;;1.80;1.10;;;14.60;55.70;;;;;;5035611;28;20046;-68
2022/04/04 10:30:57;;;;;;;1.35;1.10;;;14.70;55.30;;;;;;5035287;28;20490;-69
2022/04/04 10:33:24;;;;;;;1.27;1.10;;;14.70;53.80;;;;;;5054282;28;20053;-69
2022/04/04 10:36:01;;;;;;;1.40;1.00;;;14.70;55.40;;;;;;5055290;28;20053;-68
2022/04/04 10:38:31;;;;;;;1.65;1.10;;;14.60;47.70;;;;;;5054317;28;20060;-70
2022/04/04 10:41:00;;;;;;;1.55;1.02;;;14.80;50.20;;;;;;5055018;28;20049;-68
2022/04/04 10:43:28;;;;;;;1.00;0.90;;;14.60;55.40;;;;;;5055371;28;20056;-68
2022/04/04 10:45:57;;;;;;;1.42;0.98;;;14.60;55.40;;;;;;5054585;28;20413;-68
2022/04/04 10:48:28;;;;;;;1.30;0.90;;;14.60;47.60;;;;;;5055207;28;20493;-71
2022/04/04 10:50:55;;;;;;;1.40;0.90;;;14.70;55.40;;;;;;5054025;28;20063;-68
2022/04/04 10:53:36;;;;;;;1.85;0.90;;;14.60;55.40;;;;;;5053388;28;20048;-68
2022/04/04 10:56:05;;;;;;;1.70;0.90;;;14.70;53.70;;;;;;5055373;28;20409;-68
2022/04/04 10:58:32;;;;;;;1.48;1.00;;;14.60;55.40;;;;;;5051134;28;20063;-68
2022/04/04 11:01:06;;;;;;;1.08;0.80;;;15.40;55.70;;;;;;5033650;28;20053;-68
2022/04/04 11:03:34;;;;;;;1.73;1.15;;;14.60;55.40;;;;;;5034868;28;20107;-68
2022/04/04 11:09:08;;;;;;;1.80;1.05;;;14.70;55.80;;;;;;5044164;28;20053;-69
2022/04/04 11:11:50;;;;;;;1.20;0.83;;;14.60;47.60;;;;;;5043897;28;20037;-70
2022/04/04 11:14:17;;;;;;;1.02;0.93;;;14.60;47.60;;;;;;5044342;28;20071;-71
2022/04/04 11:17:19;;;;;;;1.80;1.00;;;14.70;55.40;;;;;;5035167;28;20072;-68
2022/04/04 11:19:46;;;;;;;0.90;0.80;;;14.70;55.70;;;;;;5033779;28;20095;-68
2022/04/04 11:22:13;;;;;;;1.25;0.82;;;14.60;47.60;;;;;;5034941;28;20148;-71
2022/04/04 11:24:40;;;;;;;0.90;0.80;;;14.00;55.30;;;;;;5044031;28;20056;-68
2022/04/04 11:27:08;;;;;;;0.95;0.85;;;14.60;47.60;;;;;;5040877;28;20063;-71
2022/04/04 11:29:36;;;;;;;0.82;0.82;;;;;;;;;;5041780;28;20053;-71
2022/04/04 11:32:03;;;;;;;1.13;0.80;;;;;;;;;;5042728;28;20538;-71
2022/04/04 11:34:30;;;;;;;1.10;0.82;;;15.00;55.90;;;;;;5043637;28;20045;-68
2022/04/04 11:36:57;;;;;;;0.77;0.73;;;14.60;55.40;;;;;;5043174;28;20053;-69
2022/04/04 11:39:24;;;;;;;1.70;1.02;;;14.00;55.10;;;;;;5042854;28;20049;-68
2022/04/04 11:41:51;;;;;;;1.42;0.90;;;14.70;55.80;;;;;;5040095;28;20045;-68
2022/04/04 11:44:32;;;;;;;1.38;0.90;;;14.60;55.60;;;;;;5043973;28;20120;-68
2022/04/04 11:47:03;;;;;;;1.60;0.90;;;14.70;55.80;;;;;;5044156;28;20048;-69
2022/04/04 11:49:33;;;;;;;0.80;0.80;;;14.70;55.70;;;;;;5033204;28;20406;-68
2022/04/04 11:52:04;;;;;;;1.00;0.90;;;14.70;55.70;;;;;;5033614;28;20068;-68
2022/04/04 11:54:38;;;;;;;1.95;1.40;;;13.80;55.20;;;;;;5034423;28;20088;-67
2022/04/04 11:57:06;;;;;;;1.35;0.90;;;14.50;55.60;;;;;;5033687;28;20045;-67
2022/04/04 11:59:36;;;;;;;1.10;0.90;;;15.40;56.00;;;;;;5033365;28;20124;-68
2022/04/04 12:02:08;;;;;;;1.15;0.90;;;14.60;55.50;;;;;;5053389;28;20049;-68
2022/04/04 12:04:39;;;;;;;0.60;0.60;;;14.60;55.50;;;;;;5052868;28;20060;-68
2022/04/04 12:07:06;;;;;;;0.80;0.80;;;;;;;;;;5052744;28;20102;-67
2022/04/04 12:09:34;;;;;;;1.08;0.95;;;14.60;55.80;;;;;;5052503;28;20056;-68
2022/04/04 12:12:05;;;;;;;1.20;0.90;;;14.50;54.70;;;;;;5052432;28;20049;-68
2022/04/04 12:14:33;;;;;;;0.60;0.60;;;14.50;47.90;;;;;;5053277;28;20498;-70
2022/04/04 12:17:01;;;;;;;1.60;0.90;;;14.50;47.90;;;;;;5050719;28;20505;-71
2022/04/04 12:19:29;;;;;;;0.65;0.60;;;;;;;;;;5052143;28;20080;-70
2022/04/04 12:21:57;;;;;;;1.00;0.90;;;;;;;;;;5052220;28;20053;-70
2022/04/04 12:27:09;;;;;;;0.68;0.68;;;14.60;55.90;;;;;;5052380;28;20378;-67
2022/04/04 12:29:40;;;;;;;0.80;0.80;;;14.60;56.00;;;;;;5053061;28;20071;-67
2022/04/04 12:32:13;;;;;;;1.23;0.90;;;14.80;48.20;;;;;;5046359;28;20042;-68
2022/04/04 12:34:40;;;;;;;0.70;0.70;;;14.40;55.80;;;;;;5032330;28;20650;-67
2022/04/04 12:37:08;;;;;;;0.80;0.80;;;13.90;52.30;;;;;;5032876;28;20052;-68
2022/04/04 12:39:35;;;;;;;0.60;0.60;;;14.60;56.00;;;;;;5031674;28;20059;-68
2022/04/04 12:42:06;;;;;;;1.58;0.77;;;14.50;56.00;;;;;;5031715;28;20421;-68
2022/04/04 12:44:34;;;;;;;0.80;0.80;;;13.90;51.30;;;;;;5032118;28;20410;-68
2022/04/04 12:47:10;;;;;;;0.80;0.80;;;14.50;48.10;;;;;;5032519;28;20107;-70
2022/04/04 12:49:38;;;;;;;0.80;0.80;;;14.60;50.70;;;;;;5049592;28;20053;-68
2022/04/04 12:52:06;;;;;;;0.60;0.60;;;14.40;55.80;;;;;;5051621;28;20045;-68
2022/04/04 12:54:34;;;;;;;0.85;0.77;;;14.50;55.90;;;;;;5052739;28;20045;-67
2022/04/04 12:57:01;;;;;;;0.70;0.70;;;14.60;55.70;;;;;;5052827;28;20049;-68
2022/04/04 12:59:28;;;;;;;0.70;0.70;;;14.50;54.60;;;;;;5052454;28;20053;-68
2022/04/04 13:02:05;;;;;;;1.35;0.77;;;14.40;52.10;;;;;;5044711;28;20056;-68
2022/04/04 13:04:33;;;;;;;0.60;0.60;;;14.50;51.30;;;;;;5040144;28;20084;-68
2022/04/04 13:07:01;;;;;;;0.60;0.60;;;14.40;55.10;;;;;;5045708;28;20114;-67
2022/04/04 13:09:28;;;;;;;0.98;0.70;;;14.50;48.10;;;;;;5052184;28;20060;-69
2022/04/04 13:11:56;;;;;;;0.52;0.52;;;14.10;55.50;;;;;;5048520;28;20045;-67
2022/04/04 13:14:23;;;;;;;0.50;0.50;;;14.30;55.80;;;;;;5043003;28;20045;-67
2022/04/04 13:16:51;;;;;;;1.52;0.80;;;14.50;55.90;;;;;;5040519;28;20192;-68
2022/04/04 13:19:18;;;;;;;1.05;0.80;;;14.40;55.80;;;;;;5039911;28;20110;-67
2022/04/04 13:21:48;;;;;;;1.08;0.60;;;14.00;55.40;;;;;;5040124;28;20108;-69